createdAt,value
2022-10-11T17:07:56.596Z,14.91
2022-10-11T17:08:57.540Z,14.87
2022-10-11T17:09:57.575Z,14.86
2022-10-11T17:10:58.008Z,14.81
2022-10-11T17:11:57.512Z,14.74
2022-10-11T17:12:57.744Z,14.69
2022-10-11T17:13:57.507Z,14.65
2022-10-11T17:14:57.496Z,14.62
2022-10-11T17:15:57.487Z,14.60
2022-10-11T17:16:57.455Z,14.57
2022-10-11T17:17:57.453Z,14.54
2022-10-11T17:18:57.460Z,14.52
2022-10-11T17:19:57.448Z,14.47
2022-10-11T17:20:57.428Z,14.43
2022-10-11T17:21:57.435Z,14.39
2022-10-11T17:22:57.402Z,14.38
2022-10-11T17:23:57.424Z,14.37
2022-10-11T17:24:57.369Z,14.32
2022-10-11T17:25:57.376Z,14.31
2022-10-11T17:26:57.368Z,14.28
2022-10-11T17:27:57.348Z,14.29
2022-10-11T17:28:57.443Z,14.27
2022-10-11T17:29:57.338Z,14.25
2022-10-11T17:30:57.311Z,14.21
2022-10-11T17:31:57.315Z,14.21
2022-10-11T17:32:57.306Z,14.19
2022-10-11T17:33:57.306Z,14.17
2022-10-11T17:34:57.271Z,14.16
2022-10-11T17:35:57.275Z,14.13
2022-10-11T17:36:57.260Z,14.16
2022-10-11T17:37:57.239Z,14.16
2022-10-11T17:38:57.289Z,14.16
2022-10-11T17:39:57.220Z,14.17
2022-10-11T17:40:57.333Z,14.19
2022-10-11T17:41:57.204Z,14.17
2022-10-11T17:42:57.185Z,14.19
2022-10-11T17:43:57.182Z,14.17
2022-10-11T17:44:57.190Z,14.17
2022-10-11T17:45:57.174Z,14.17
2022-10-11T17:46:57.150Z,14.17
2022-10-11T17:47:57.449Z,14.19
2022-10-11T17:48:57.121Z,14.17
2022-10-11T17:49:57.157Z,14.17
2022-10-11T17:50:57.111Z,14.16
2022-10-11T17:51:57.111Z,14.14
2022-10-11T17:52:57.099Z,14.13
2022-10-11T17:53:57.075Z,14.12
2022-10-11T17:54:57.079Z,14.10
2022-10-11T17:55:57.071Z,14.09
2022-10-11T17:56:57.055Z,14.09
2022-10-11T17:57:57.104Z,14.09
2022-10-11T17:58:57.040Z,14.06
2022-10-11T17:59:57.642Z,14.06
2022-10-11T18:00:57.232Z,14.06
2022-10-11T18:01:57.698Z,13.99
2022-10-11T18:02:57.435Z,13.98
2022-10-11T18:03:56.970Z,13.95
2022-10-11T18:04:56.982Z,13.95
2022-10-11T18:05:56.956Z,13.92
2022-10-11T18:06:56.932Z,13.91
2022-10-11T18:07:56.940Z,13.91
2022-10-11T18:08:56.914Z,13.87
2022-10-11T18:09:56.949Z,13.87
2022-10-11T18:10:56.910Z,13.87
2022-10-11T18:11:56.902Z,13.84
2022-10-11T18:12:56.881Z,13.81
2022-10-11T18:13:56.865Z,13.81
2022-10-11T18:14:56.873Z,13.81
2022-10-11T18:15:56.862Z,13.81
2022-10-11T18:16:56.838Z,13.79
2022-10-11T18:17:56.837Z,13.77
2022-10-11T18:18:56.819Z,13.76
2022-10-11T18:19:56.825Z,13.74
2022-10-11T18:20:56.799Z,13.71
2022-10-11T18:21:56.809Z,13.70
2022-10-11T18:22:56.779Z,13.65
2022-10-11T18:23:56.772Z,13.65
2022-10-11T18:24:57.041Z,13.62
2022-10-11T18:25:56.776Z,13.62
2022-10-11T18:26:56.749Z,13.59
2022-10-11T18:27:56.715Z,13.62
2022-10-11T18:28:56.809Z,13.61
2022-10-11T18:29:56.738Z,13.59
2022-10-11T18:30:56.688Z,13.59
2022-10-11T18:31:56.684Z,13.59
2022-10-11T18:32:56.676Z,13.59
2022-10-11T18:33:56.673Z,13.59
2022-10-11T18:34:56.677Z,13.59
2022-10-11T18:35:56.650Z,13.59
2022-10-11T18:36:56.625Z,13.61
2022-10-11T18:38:00.762Z,13.61
2022-10-11T18:38:56.614Z,13.58
2022-10-11T18:39:56.613Z,13.56
2022-10-11T18:40:56.603Z,13.59
2022-10-11T18:41:56.568Z,13.59
2022-10-11T18:42:56.706Z,13.59
2022-10-11T18:43:56.567Z,13.61
2022-10-11T18:44:56.564Z,13.61
2022-10-11T18:45:56.544Z,13.61
2022-10-11T18:46:56.545Z,13.62
2022-10-11T18:47:56.506Z,13.62
2022-10-11T18:48:56.500Z,13.63
2022-10-11T18:49:56.516Z,13.63
2022-10-11T18:50:56.481Z,13.65
2022-10-11T18:51:56.475Z,13.65
2022-10-11T18:52:56.510Z,13.67
2022-10-11T18:53:56.441Z,13.67
2022-10-11T18:54:56.463Z,13.69
2022-10-11T18:55:56.433Z,13.69
2022-10-11T18:56:56.426Z,13.69
2022-10-11T18:57:56.419Z,13.67
2022-10-11T18:58:56.412Z,13.65
2022-10-11T18:59:56.422Z,13.67
2022-10-11T19:00:56.644Z,13.67
2022-10-11T19:01:56.366Z,13.63
2022-10-11T19:02:56.361Z,13.62
2022-10-11T19:03:56.369Z,13.62
2022-10-11T19:04:56.628Z,13.63
2022-10-11T19:05:56.316Z,13.63
2022-10-11T19:06:56.322Z,13.65
2022-10-11T19:07:56.296Z,13.63
2022-10-11T19:08:56.291Z,13.67
2022-10-11T19:09:56.559Z,13.67
2022-10-11T19:10:56.281Z,13.65
2022-10-11T19:11:56.259Z,13.65
2022-10-11T19:12:56.272Z,13.67
2022-10-11T19:13:56.250Z,13.67
2022-10-11T19:14:56.264Z,13.70
2022-10-11T19:15:56.214Z,13.71
2022-10-11T19:16:56.436Z,13.70
2022-10-11T19:17:56.217Z,13.71
2022-10-11T19:18:56.190Z,13.70
2022-10-11T19:19:56.196Z,13.69
2022-10-11T19:20:56.184Z,13.70
2022-10-11T19:21:56.151Z,13.71
2022-10-11T19:22:56.164Z,13.70
2022-10-11T19:23:56.163Z,13.71
2022-10-11T19:24:56.182Z,13.71
2022-10-11T19:25:56.115Z,13.71
2022-10-11T19:27:01.180Z,13.71
2022-10-11T19:27:56.108Z,13.71
2022-10-11T19:28:56.196Z,13.71
2022-10-11T19:29:56.229Z,13.71
2022-10-11T19:30:56.065Z,13.71
2022-10-11T19:31:56.066Z,13.73
2022-10-11T19:32:56.061Z,13.71
